La Mesa, New Mexico
Current Conditions -  °F | °C
As of 2:35 PM on Saturday 25 Oct 2014 (Local Time) from KLRU Reporting Station
Clear Clear  
Wind Chill: 81°   Ceiling: Unl
Heat Index: 81°   Visibility: 10mi
Dew Point: 41°   Wind: 0mph
Humidity: 24%   Direction: NA
Pressure: 30.21"   Gusts: NA
Location:  32.12°N, 106.71°W
Report Text: KLRU 252035Z AUTO 00000KT 10SM CLR 27/05 A3021 RMK AO2 T02720052
Loading
Personal Weather Stations






























Interactive Weather Map
Tropical Storm Tracking
New forecast layout! Learn more

10-Day Weather Forecast

Advertisements
Track Severe Weather on mobile